Time;durP1;ratioP1;P1;durP2;ratioP2;P2;SDS_P1;SDS_P2;PMS_P1;PMS_P2;Temp;Humidity;BMP_temperature;BMP_pressure;BME280_temperature;BME280_humidity;BME280_pressure;Samples;Min_cycle;Max_cycle;Signal;HPM_P1;HPM_P2
2021/03/26 00:01:17;;;;;;;159.63;21.30;;;;;;;-145.18;100.00;60484.78;5011124;28;20285;-77
2021/03/26 00:03:44;;;;;;;139.30;21.53;;;;;;;-145.18;100.00;60484.78;5010182;28;20033;-77
2021/03/26 00:06:14;;;;;;;117.77;19.00;;;;;;;-145.18;100.00;60484.78;5010999;28;20475;-76
2021/03/26 00:08:40;;;;;;;115.17;17.77;;;;;;;-145.18;100.00;60484.78;5011577;28;20295;-76
2021/03/26 00:11:06;;;;;;;153.40;21.93;;;;;;;-145.18;100.00;60484.78;5010589;28;20284;-76
2021/03/26 00:13:32;;;;;;;155.90;20.57;;;;;;;-145.18;100.00;60484.78;5010785;28;20285;-76
2021/03/26 00:15:59;;;;;;;168.13;22.07;;;;;;;-145.18;100.00;60484.78;5010896;28;20280;-76
2021/03/26 00:18:24;;;;;;;176.43;20.57;;;;;;;-145.18;100.00;60484.78;5006830;28;20057;-76
2021/03/26 00:20:50;;;;;;;161.13;20.20;;;;;;;-145.18;100.00;60484.78;4991323;28;20269;-76
2021/03/26 00:23:16;;;;;;;166.30;21.57;;;;;;;-145.18;100.00;60484.78;4992615;28;20031;-77
2021/03/26 00:25:42;;;;;;;159.47;20.13;;;;;;;-145.18;100.00;60484.78;4994826;28;20031;-77
2021/03/26 00:28:08;;;;;;;154.83;21.23;;;;;;;-145.18;100.00;60484.78;4991194;28;20300;-77
2021/03/26 00:30:34;;;;;;;158.43;23.07;;;;;;;-145.18;100.00;60484.78;4994225;28;20383;-77
2021/03/26 00:33:01;;;;;;;177.93;22.83;;;;;;;-145.18;100.00;60484.78;4993486;28;20026;-77
2021/03/26 00:35:27;;;;;;;164.20;21.53;;;;;;;-145.18;100.00;60484.78;4993517;28;20285;-77
2021/03/26 00:37:55;;;;;;;181.67;20.70;;;;;;;-145.18;100.00;60484.78;4994175;28;20305;-77
2021/03/26 00:40:21;;;;;;;181.53;22.73;;;;;;;-145.18;100.00;60484.78;4992693;28;20285;-77
2021/03/26 00:42:47;;;;;;;200.60;21.67;;;;;;;-145.18;100.00;60484.78;4991460;28;20277;-77
2021/03/26 00:45:23;;;;;;;178.03;23.57;;;;;;;-145.18;100.00;60484.78;4992483;28;20288;-77
2021/03/26 00:47:49;;;;;;;201.77;23.50;;;;;;;-145.18;100.00;60484.78;4993782;28;20418;-76
2021/03/26 00:50:21;;;;;;;246.90;26.73;;;;;;;-145.18;100.00;60484.78;4995209;28;20277;-76
2021/03/26 00:52:47;;;;;;;221.05;26.98;;;;;;;-145.18;100.00;60484.78;4990113;28;20037;-76
2021/03/26 00:55:13;;;;;;;251.43;27.60;;;;;;;-145.18;100.00;60484.78;4991943;28;20030;-77
2021/03/26 00:57:39;;;;;;;250.30;27.17;;;;;;;-145.18;100.00;60484.78;4991719;28;20023;-77
2021/03/26 01:00:07;;;;;;;226.83;27.00;;;;;;;-145.18;100.00;60484.78;4991797;28;20363;-77
2021/03/26 01:02:33;;;;;;;240.63;27.83;;;;;;;-145.18;100.00;60484.78;4993747;28;20518;-77
2021/03/26 01:04:58;;;;;;;214.67;28.50;;;;;;;-145.18;100.00;60484.78;4994716;28;20269;-77
2021/03/26 01:07:24;;;;;;;213.93;26.87;;;;;;;-145.18;100.00;60484.78;4996466;28;20105;-77
2021/03/26 01:09:50;;;;;;;214.43;28.83;;;;;;;-145.18;100.00;60484.78;4990571;28;21043;-77
2021/03/26 01:12:15;;;;;;;248.37;28.33;;;;;;;-145.18;100.00;60484.78;4994070;28;20029;-77
2021/03/26 01:14:41;;;;;;;223.03;28.60;;;;;;;-145.18;100.00;60484.78;4990923;28;20088;-77
2021/03/26 01:17:06;;;;;;;234.50;28.87;;;;;;;-145.18;100.00;60484.78;4999403;28;20181;-77
2021/03/26 01:19:38;;;;;;;236.13;26.30;;;;;;;-145.18;100.00;60484.78;5010788;28;20531;-77
2021/03/26 01:22:04;;;;;;;255.37;29.37;;;;;;;-145.18;100.00;60484.78;5017586;28;20033;-77
2021/03/26 01:24:29;;;;;;;253.60;28.80;;;;;;;-145.18;100.00;60484.78;5010753;28;20280;-77
2021/03/26 01:26:54;;;;;;;250.37;30.07;;;;;;;-145.18;100.00;60484.78;5012751;28;20295;-77
2021/03/26 01:29:20;;;;;;;249.97;28.73;;;;;;;-145.18;100.00;60484.78;5013189;28;20025;-77
2021/03/26 01:31:45;;;;;;;284.20;29.27;;;;;;;-145.18;100.00;60484.78;5012879;28;20048;-77
2021/03/26 01:34:11;;;;;;;271.20;28.60;;;;;;;-145.18;100.00;60484.78;5013465;28;20033;-77
2021/03/26 01:36:36;;;;;;;241.63;29.77;;;;;;;-145.18;100.00;60484.78;5013516;28;20028;-77
2021/03/26 01:39:05;;;;;;;256.77;29.27;;;;;;;-145.18;100.00;60484.78;4993979;28;20069;-77
2021/03/26 01:41:41;;;;;;;254.80;28.97;;;;;;;-145.18;100.00;60484.78;5007946;28;20654;-77
2021/03/26 01:44:09;;;;;;;238.63;28.47;;;;;;;-145.18;100.00;60484.78;5009890;28;20288;-77
2021/03/26 01:46:38;;;;;;;215.63;27.23;;;;;;;-145.18;100.00;60484.78;5012751;28;20257;-77
2021/03/26 01:49:06;;;;;;;187.40;26.77;;;;;;;-145.18;100.00;60484.78;5013725;28;20281;-77
2021/03/26 01:51:44;;;;;;;199.90;26.43;;;;;;;-145.18;100.00;60484.78;5014274;28;20291;-77
2021/03/26 01:54:14;;;;;;;235.47;26.53;;;;;;;-145.18;100.00;60484.78;5009169;28;20283;-77
2021/03/26 01:56:40;;;;;;;257.63;28.90;;;;;;;-145.18;100.00;60484.78;5013279;28;20618;-77
2021/03/26 01:59:06;;;;;;;256.73;28.17;;;;;;;-145.18;100.00;60484.78;5017787;28;20363;-77
2021/03/26 02:01:43;;;;;;;310.47;31.60;;;;;;;-145.18;100.00;60484.78;5012824;28;20372;-77
2021/03/26 02:04:09;;;;;;;275.73;30.80;;;;;;;-145.18;100.00;60484.78;5011585;28;20035;-78
2021/03/26 02:06:46;;;;;;;213.80;27.37;;;;;;;-145.18;100.00;60484.78;5010766;28;20284;-78
2021/03/26 02:09:20;;;;;;;233.87;29.17;;;;;;;-145.18;100.00;60484.78;5008701;28;20741;-77
2021/03/26 02:11:57;;;;;;;219.77;27.57;;;;;;;-145.18;100.00;60484.78;5012383;28;20368;-77
2021/03/26 02:14:29;;;;;;;245.63;27.90;;;;;;;-145.18;100.00;60484.78;5008941;28;20296;-77
2021/03/26 02:16:55;;;;;;;267.27;29.27;;;;;;;-145.18;100.00;60484.78;5010484;28;21104;-77
2021/03/26 02:19:33;;;;;;;247.53;28.50;;;;;;;-145.18;100.00;60484.78;5010934;28;20336;-78
2021/03/26 02:21:58;;;;;;;207.57;26.83;;;;;;;-145.18;100.00;60484.78;5013330;28;20108;-78
2021/03/26 02:24:27;;;;;;;214.33;26.97;;;;;;;-145.18;100.00;60484.78;5012051;28;20312;-78
2021/03/26 02:26:56;;;;;;;230.57;28.23;;;;;;;-145.18;100.00;60484.78;4997216;28;20079;-78
2021/03/26 02:29:27;;;;;;;227.87;27.33;;;;;;;-145.18;100.00;60484.78;5010331;28;20283;-78
2021/03/26 02:32:06;;;;;;;243.60;29.33;;;;;;;-145.18;100.00;60484.78;5012240;28;20418;-78
2021/03/26 02:35:02;;;;;;;240.37;29.53;;;;;;;-145.18;100.00;60484.78;5014275;28;20364;-78
2021/03/26 02:37:28;;;;;;;247.77;29.37;;;;;;;-145.18;100.00;60484.78;5005426;28;20285;-78
2021/03/26 02:39:54;;;;;;;281.10;29.10;;;;;;;-145.18;100.00;60484.78;5011518;28;20330;-77
2021/03/26 02:42:28;;;;;;;248.30;27.87;;;;;;;-145.18;100.00;60484.78;5011250;28;20532;-78
2021/03/26 02:45:06;;;;;;;218.90;28.33;;;;;;;-145.18;100.00;60484.78;5010205;28;20041;-78
2021/03/26 02:47:40;;;;;;;250.93;28.53;;;;;;;-145.18;100.00;60484.78;5009695;28;20300;-77
2021/03/26 02:50:11;;;;;;;264.20;30.83;;;;;;;-145.18;100.00;60484.78;5012212;28;20288;-77
2021/03/26 02:52:36;;;;;;;268.40;32.10;;;;;;;-145.18;100.00;60484.78;5011095;28;20724;-77
2021/03/26 02:55:12;;;;;;;282.23;33.43;;;;;;;-145.18;100.00;60484.78;5010976;28;20272;-77
2021/03/26 02:57:52;;;;;;;289.50;35.33;;;;;;;-145.18;100.00;60484.78;5011543;28;20072;-77
2021/03/26 03:00:38;;;;;;;273.63;34.80;;;;;;;-145.18;100.00;60484.78;5011867;28;20311;-77
2021/03/26 03:03:08;;;;;;;308.20;37.23;;;;;;;-145.18;100.00;60484.78;5009512;28;20276;-78
2021/03/26 03:05:42;;;;;;;271.87;36.07;;;;;;;-145.18;100.00;60484.78;5010143;28;20276;-78
2021/03/26 03:08:19;;;;;;;291.73;36.53;;;;;;;-145.18;100.00;60484.78;5010023;28;20328;-78
2021/03/26 03:10:49;;;;;;;270.40;35.60;;;;;;;-145.18;100.00;60484.78;5009100;28;20280;-78
2021/03/26 03:13:25;;;;;;;287.37;35.47;;;;;;;-145.18;100.00;60484.78;5009373;28;20316;-78
2021/03/26 03:15:56;;;;;;;279.30;36.57;;;;;;;-145.18;100.00;60484.78;5010735;28;20357;-78
2021/03/26 03:18:32;;;;;;;269.93;33.80;;;;;;;-145.18;100.00;60484.78;5006068;28;20433;-78
2021/03/26 03:21:16;;;;;;;268.63;34.27;;;;;;;-145.18;100.00;60484.78;4993488;28;20844;-78
2021/03/26 03:24:05;;;;;;;267.43;35.87;;;;;;;-145.18;100.00;60484.78;4990060;28;20316;-78
2021/03/26 03:26:55;;;;;;;265.20;34.10;;;;;;;-145.18;100.00;60484.78;4987154;28;20277;-78
2021/03/26 03:29:27;;;;;;;212.23;31.17;;;;;;;-145.18;100.00;60484.78;4989289;28;20312;-78
2021/03/26 03:32:16;;;;;;;253.23;32.70;;;;;;;-145.18;100.00;60484.78;4991728;28;20293;-77
2021/03/26 03:34:47;;;;;;;279.57;36.33;;;;;;;-145.18;100.00;60484.78;4989985;28;20030;-77
2021/03/26 03:37:27;;;;;;;290.33;33.60;;;;;;;-145.18;100.00;60484.78;4989078;28;20295;-77
2021/03/26 03:40:14;;;;;;;255.20;34.03;;;;;;;-145.18;100.00;60484.78;4988494;28;20289;-77
2021/03/26 03:43:01;;;;;;;220.30;32.40;;;;;;;-145.18;100.00;60484.78;4988086;28;20278;-76
2021/03/26 03:45:43;;;;;;;212.57;32.63;;;;;;;-145.18;100.00;60484.78;4988387;28;20919;-76
2021/03/26 03:48:20;;;;;;;246.85;34.72;;;;;;;-145.18;100.00;60484.78;4991051;28;20289;-77
2021/03/26 03:51:25;;;;;;;215.83;31.27;;;;;;;-145.18;100.00;60484.78;4989805;28;20026;-77
2021/03/26 03:54:05;;;;;;;292.10;35.97;;;;;;;-145.18;100.00;60484.78;4980138;28;20297;-77
2021/03/26 03:56:40;;;;;;;217.27;32.97;;;;;;;-145.18;100.00;60484.78;4989740;28;20289;-77
2021/03/26 03:59:23;;;;;;;268.73;33.83;;;;;;;-145.18;100.00;60484.78;4990117;28;21702;-77
2021/03/26 04:02:20;;;;;;;286.40;35.28;;;;;;;-145.18;100.00;60484.78;4991455;28;20343;-77
2021/03/26 04:04:48;;;;;;;264.03;34.33;;;;;;;-145.18;100.00;60484.78;4981500;28;20038;-77
2021/03/26 04:07:21;;;;;;;227.73;30.87;;;;;;;-145.18;100.00;60484.78;4987309;28;20285;-77
2021/03/26 04:09:55;;;;;;;296.92;35.17;;;;;;;-145.18;100.00;60484.78;4988610;28;20327;-77
2021/03/26 04:12:24;;;;;;;287.27;35.60;;;;;;;-145.18;100.00;60484.78;4989282;28;20387;-77
2021/03/26 04:15:19;;;;;;;278.27;34.90;;;;;;;-145.18;100.00;60484.78;4992766;28;20289;-77
2021/03/26 04:17:55;;;;;;;289.83;36.63;;;;;;;-145.18;100.00;60484.78;4988999;28;20364;-77
2021/03/26 04:20:39;;;;;;;300.70;35.43;;;;;;;-145.18;100.00;60484.78;5010355;28;20332;-77
2021/03/26 04:23:21;;;;;;;299.90;37.17;;;;;;;-145.18;100.00;60484.78;5010264;28;20318;-77
2021/03/26 04:26:11;;;;;;;278.35;35.05;;;;;;;-145.18;100.00;60484.78;5011371;28;20355;-77
2021/03/26 04:28:41;;;;;;;285.03;38.43;;;;;;;-145.18;100.00;60484.78;5015146;28;20030;-77
2021/03/26 04:31:11;;;;;;;312.03;38.27;;;;;;;-145.18;100.00;60484.78;5011656;28;20276;-77
2021/03/26 04:33:37;;;;;;;304.10;38.50;;;;;;;-145.18;100.00;60484.78;5009792;28;20284;-77
2021/03/26 04:36:05;;;;;;;294.57;38.33;;;;;;;-145.18;100.00;60484.78;5010213;28;20652;-77
2021/03/26 04:38:42;;;;;;;295.07;36.77;;;;;;;-145.18;100.00;60484.78;5009559;28;20037;-77
2021/03/26 04:41:11;;;;;;;373.53;41.07;;;;;;;-145.18;100.00;60484.78;5009912;28;20669;-77
2021/03/26 04:43:52;;;;;;;349.83;42.10;;;;;;;-145.18;100.00;60484.78;5006339;28;20331;-76
2021/03/26 04:46:45;;;;;;;342.67;41.13;;;;;;;-145.18;100.00;60484.78;5010947;28;20642;-76
2021/03/26 04:49:37;;;;;;;346.50;41.87;;;;;;;-145.18;100.00;60484.78;5010043;28;20297;-77
2021/03/26 04:52:38;;;;;;;353.40;41.97;;;;;;;-145.18;100.00;60484.78;5006021;28;20288;-77
2021/03/26 04:55:10;;;;;;;334.90;42.13;;;;;;;-145.18;100.00;60484.78;5008626;28;20269;-77
2021/03/26 04:57:42;;;;;;;325.27;42.17;;;;;;;-145.18;100.00;60484.78;5007439;28;20285;-76
2021/03/26 05:00:28;;;;;;;315.60;41.03;;;;;;;-145.18;100.00;60484.78;5009154;28;20025;-76
2021/03/26 05:03:00;;;;;;;322.63;40.03;;;;;;;-145.18;100.00;60484.78;5009295;28;20165;-77
2021/03/26 05:05:26;;;;;;;351.95;42.45;;;;;;;-145.18;100.00;60484.78;5009664;28;20276;-77
2021/03/26 05:08:05;;;;;;;314.33;41.87;;;;;;;-145.18;100.00;60484.78;5010490;28;20029;-77
2021/03/26 05:10:34;;;;;;;342.17;43.33;;;;;;;-145.18;100.00;60484.78;5011583;28;20280;-77
2021/03/26 05:13:06;;;;;;;322.50;41.63;;;;;;;-145.18;100.00;60484.78;5009848;28;20366;-77
2021/03/26 05:15:38;;;;;;;341.02;45.45;;;;;;;-145.18;100.00;60484.78;5012420;28;20291;-77
2021/03/26 05:18:24;;;;;;;;;;;;;;;-145.18;100.00;60484.78;5012606;28;20026;-77
2021/03/26 05:21:04;;;;;;;319.57;39.73;;;;;;;-145.18;100.00;60484.78;5015177;28;19917;-76
2021/03/26 05:23:35;;;;;;;302.47;39.53;;;;;;;-145.18;100.00;60484.78;4993996;28;20284;-76
2021/03/26 05:26:01;;;;;;;376.70;43.77;;;;;;;-145.18;100.00;60484.78;5008985;28;20311;-76
2021/03/26 05:28:30;;;;;;;374.33;44.23;;;;;;;-145.18;100.00;60484.78;5012356;28;20972;-76
2021/03/26 05:31:08;;;;;;;390.13;43.83;;;;;;;-145.18;100.00;60484.78;5012690;28;20285;-77
2021/03/26 05:33:45;;;;;;;354.80;43.53;;;;;;;-145.18;100.00;60484.78;5012422;28;20790;-77
2021/03/26 05:36:38;;;;;;;377.93;45.97;;;;;;;-145.18;100.00;60484.78;5011234;28;20276;-77
2021/03/26 05:39:14;;;;;;;357.13;44.13;;;;;;;-145.18;100.00;60484.78;5011815;28;20280;-77
2021/03/26 05:42:04;;;;;;;345.60;42.80;;;;;;;-145.18;100.00;60484.78;5011432;28;20280;-77
2021/03/26 05:44:34;;;;;;;327.23;42.33;;;;;;;-145.18;100.00;60484.78;5009504;28;20348;-77
2021/03/26 05:47:19;;;;;;;316.00;43.13;;;;;;;-145.18;100.00;60484.78;5013278;28;20315;-77
2021/03/26 05:49:58;;;;;;;259.37;39.13;;;;;;;-145.18;100.00;60484.78;5007835;28;20272;-77
2021/03/26 05:52:36;;;;;;;222.30;37.47;;;;;;;-145.18;100.00;60484.78;5010160;28;20277;-77
2021/03/26 05:55:23;;;;;;;213.83;37.13;;;;;;;-145.18;100.00;60484.78;5011162;28;20773;-77
2021/03/26 05:58:16;;;;;;;216.50;34.90;;;;;;;-145.18;100.00;60484.78;5012508;28;20276;-77
2021/03/26 06:01:00;;;;;;;206.20;36.27;;;;;;;-145.18;100.00;60484.78;5009812;28;20273;-77
2021/03/26 06:03:28;;;;;;;179.70;33.67;;;;;;;-145.18;100.00;60484.78;5010795;28;21155;-76
2021/03/26 06:06:17;;;;;;;173.47;34.10;;;;;;;-145.18;100.00;60484.78;5012168;28;20275;-77
2021/03/26 06:09:10;;;;;;;196.27;33.13;;;;;;;-145.18;100.00;60484.78;4977275;28;20300;-77
2021/03/26 06:12:01;;;;;;;170.35;32.90;;;;;;;-145.18;100.00;60484.78;5014498;28;20436;-76
2021/03/26 06:14:59;;;;;;;133.13;28.87;;;;;;;-145.18;100.00;60484.78;5009192;28;20037;-77
2021/03/26 06:18:02;;;;;;;113.57;27.57;;;;;;;-145.18;100.00;60484.78;5013259;28;20124;-77
2021/03/26 06:20:42;;;;;;;122.40;27.83;;;;;;;-145.18;100.00;60484.78;5005944;28;20034;-76
2021/03/26 06:23:45;;;;;;;97.23;24.10;;;;;;;-145.18;100.00;60484.78;5007328;28;20479;-77
2021/03/26 06:26:29;;;;;;;;;;;;;;;-145.18;100.00;60484.78;5000216;28;20105;-77
2021/03/26 06:29:16;;;;;;;95.60;23.57;;;;;;;-145.18;100.00;60484.78;5012572;28;19917;-77
2021/03/26 06:32:19;;;;;;;65.73;19.47;;;;;;;-145.18;100.00;60484.78;5003739;28;20030;-77
2021/03/26 06:35:09;;;;;;;67.97;18.67;;;;;;;-145.18;100.00;60484.78;5006654;28;20028;-77
2021/03/26 06:37:52;;;;;;;58.53;17.27;;;;;;;-145.18;100.00;60484.78;5010620;28;20493;-76
2021/03/26 06:40:22;;;;;;;54.93;17.43;;;;;;;-145.18;100.00;60484.78;5012663;28;20029;-77
2021/03/26 06:42:51;;;;;;;58.23;18.67;;;;;;;-145.18;100.00;60484.78;5010434;28;20041;-76
2021/03/26 06:45:35;;;;;;;55.77;17.47;;;;;;;-145.18;100.00;60484.78;5009001;28;20037;-76
2021/03/26 06:48:12;;;;;;;52.43;17.90;;;;;;;-145.18;100.00;60484.78;5003703;28;20038;-75
2021/03/26 06:51:31;;;;;;;53.57;17.40;;;;;;;-145.18;100.00;60484.78;5009784;28;20037;-76
2021/03/26 06:54:30;;;;;;;46.43;16.23;;;;;;;-145.18;100.00;60484.78;4951108;28;20457;-76
2021/03/26 06:57:24;;;;;;;32.40;12.67;;;;;;;-145.18;100.00;60484.78;5004801;28;20034;-76
2021/03/26 07:00:20;;;;;;;33.30;12.00;;;;;;;-145.18;100.00;60484.78;5011778;28;20439;-76
2021/03/26 07:03:00;;;;;;;26.63;11.37;;;;;;;-145.18;100.00;60484.78;5007461;28;20080;-76
2021/03/26 07:05:42;;;;;;;31.37;10.80;;;;;;;-145.18;100.00;60484.78;5007168;28;20475;-76
2021/03/26 07:08:23;;;;;;;27.33;10.55;;;;;;;-145.18;100.00;60484.78;5005604;28;20038;-76
2021/03/26 07:10:51;;;;;;;26.27;10.97;;;;;;;-145.18;100.00;60484.78;5012868;28;20466;-76
2021/03/26 07:13:51;;;;;;;28.50;10.93;;;;;;;-145.18;100.00;60484.78;5006958;28;20479;-76
2021/03/26 07:16:31;;;;;;;25.43;10.37;;;;;;;-145.18;100.00;60484.78;5005706;28;20145;-76
2021/03/26 07:19:20;;;;;;;28.37;10.47;;;;;;;-145.18;100.00;60484.78;5009563;28;20502;-76
2021/03/26 07:22:33;;;;;;;27.20;10.97;;;;;;;-145.18;100.00;60484.78;5009430;28;20375;-77
2021/03/26 07:25:13;;;;;;;27.02;11.38;;;;;;;-145.18;100.00;60484.78;4928563;29;20031;-77
2021/03/26 07:27:54;;;;;;;24.70;10.77;;;;;;;-145.18;100.00;60484.78;5000969;28;20487;-77
2021/03/26 07:31:00;;;;;;;26.10;9.23;;;;;;;-145.18;100.00;60484.78;5010437;28;20041;-77
2021/03/26 07:33:45;;;;;;;23.63;10.17;;;;;;;-145.18;100.00;60484.78;5007331;28;20033;-76
2021/03/26 07:36:34;;;;;;;27.33;10.70;;;;;;;-145.18;100.00;60484.78;5010231;28;20018;-76
2021/03/26 07:39:13;;;;;;;25.63;10.10;;;;;;;-145.18;100.00;60484.78;5010214;28;20530;-76
2021/03/26 07:41:51;;;;;;;25.37;10.47;;;;;;;-145.18;100.00;60484.78;4995503;28;20036;-76
2021/03/26 07:44:33;;;;;;;23.83;10.17;;;;;;;-145.18;100.00;60484.78;5010492;28;20045;-76
2021/03/26 07:47:01;;;;;;;27.67;10.90;;;;;;;-145.18;100.00;60484.78;5006253;28;20032;-76
2021/03/26 07:49:54;;;;;;;26.30;9.93;;;;;;;-145.18;100.00;60484.78;5009208;28;20042;-76
2021/03/26 07:53:03;;;;;;;26.25;9.40;;;;;;;-145.18;100.00;60484.78;5008488;28;20045;-76
2021/03/26 07:55:49;;;;;;;30.80;11.17;;;;;;;-145.18;100.00;60484.78;5002551;28;20602;-76
2021/03/26 07:58:46;;;;;;;26.13;10.20;;;;;;;-145.18;100.00;60484.78;5010239;28;20022;-76
2021/03/26 08:01:42;;;;;;;24.73;8.93;;;;;;;-145.18;100.00;60484.78;5008931;28;20042;-75
2021/03/26 08:04:17;;;;;;;23.57;10.57;;;;;;;-145.18;100.00;60484.78;5007431;28;20030;-75
2021/03/26 08:07:01;;;;;;;24.47;10.77;;;;;;;-145.18;100.00;60484.78;5007463;28;20037;-76
2021/03/26 08:09:58;;;;;;;26.47;10.50;;;;;;;-145.18;100.00;60484.78;5008986;28;20029;-76
2021/03/26 08:12:40;;;;;;;24.50;9.67;;;;;;;-145.18;100.00;60484.78;4958075;28;20586;-76
2021/03/26 08:15:32;;;;;;;22.63;9.20;;;;;;;-145.18;100.00;60484.78;5008848;28;20030;-77
2021/03/26 08:18:23;;;;;;;26.02;10.25;;;;;;;-145.18;100.00;60484.78;5008863;28;20033;-76
2021/03/26 08:21:00;;;;;;;20.80;9.17;;;;;;;-145.18;100.00;60484.78;4991255;28;20026;-76
2021/03/26 08:23:57;;;;;;;27.80;11.93;;;;;;;-145.18;100.00;60484.78;5007544;28;20032;-76
2021/03/26 08:26:51;;;;;;;26.20;9.87;;;;;;;-145.18;100.00;60484.78;5008768;28;20036;-76
2021/03/26 08:29:44;;;;;;;25.40;9.93;;;;;;;-145.18;100.00;60484.78;5011606;28;20457;-76
2021/03/26 08:32:32;;;;;;;24.67;9.63;;;;;;;-145.18;100.00;60484.78;5008060;28;20026;-76
2021/03/26 08:35:25;;;;;;;23.57;10.17;;;;;;;-145.18;100.00;60484.78;5004732;28;20025;-76
2021/03/26 08:38:33;;;;;;;19.92;8.77;;;;;;;-145.18;100.00;60484.78;5006774;28;20513;-75
2021/03/26 08:41:03;;;;;;;21.73;8.80;;;;;;;-145.18;100.00;60484.78;5009135;28;20030;-75
2021/03/26 08:43:33;;;;;;;22.07;9.20;;;;;;;-145.18;100.00;60484.78;5011015;28;20022;-77
2021/03/26 08:46:19;;;;;;;26.57;10.43;;;;;;;-145.18;100.00;60484.78;5015577;28;20033;-76
2021/03/26 08:48:49;;;;;;;21.03;8.53;;;;;;;-145.18;100.00;60484.78;5013034;28;20066;-77
2021/03/26 08:51:41;;;;;;;19.80;8.50;;;;;;;-145.18;100.00;60484.78;4995713;28;20108;-76
2021/03/26 08:54:41;;;;;;;23.13;8.95;;;;;;;-145.18;100.00;60484.78;5008185;28;20052;-76
2021/03/26 08:57:19;;;;;;;14.20;6.67;;;;;;;-145.18;100.00;60484.78;5014507;28;20394;-76
2021/03/26 08:59:54;;;;;;;20.80;7.40;;;;;;;-145.18;100.00;60484.78;5012462;28;20030;-76
2021/03/26 09:03:06;;;;;;;16.53;7.80;;;;;;;-145.18;100.00;60484.78;5011731;28;20041;-76
2021/03/26 09:05:44;;;;;;;21.50;8.18;;;;;;;-145.18;100.00;60484.78;5002680;28;20048;-76
2021/03/26 09:08:12;;;;;;;26.97;10.23;;;;;;;-145.18;100.00;60484.78;5010473;28;20026;-76
2021/03/26 09:11:06;;;;;;;22.03;8.93;;;;;;;-145.18;100.00;60484.78;5011871;28;20037;-77
2021/03/26 09:13:56;;;;;;;18.87;8.73;;;;;;;-145.18;100.00;60484.78;5012496;28;20061;-77
2021/03/26 09:16:27;;;;;;;18.50;8.33;;;;;;;-145.18;100.00;60484.78;5011130;28;20101;-77
2021/03/26 09:19:22;;;;;;;21.90;8.17;;;;;;;-145.18;100.00;60484.78;5010498;28;20046;-76
2021/03/26 09:22:01;;;;;;;20.93;10.00;;;;;;;-145.18;100.00;60484.78;4975211;28;20070;-77
2021/03/26 09:24:46;;;;;;;23.20;9.50;;;;;;;-145.18;100.00;60484.78;5012742;28;20116;-77
2021/03/26 09:27:37;;;;;;;19.80;8.63;;;;;;;-145.18;100.00;60484.78;5012995;28;20485;-76
2021/03/26 09:30:08;;;;;;;23.00;10.43;;;;;;;-145.18;100.00;60484.78;5012852;28;20457;-77
2021/03/26 09:32:43;;;;;;;16.40;7.47;;;;;;;-145.18;100.00;60484.78;5012212;28;20037;-77
2021/03/26 09:35:11;;;;;;;15.70;7.43;;;;;;;-145.18;100.00;60484.78;5012670;28;20036;-77
2021/03/26 09:37:45;;;;;;;16.17;6.93;;;;;;;-145.18;100.00;60484.78;4992824;28;20113;-77
2021/03/26 09:40:24;;;;;;;16.10;6.73;;;;;;;-145.18;100.00;60484.78;5012630;28;20033;-77
2021/03/26 09:42:55;;;;;;;18.63;7.27;;;;;;;-145.18;100.00;60484.78;5012516;28;20025;-77
2021/03/26 09:45:32;;;;;;;15.57;7.60;;;;;;;-145.18;100.00;60484.78;5011898;28;20022;-76
2021/03/26 09:48:30;;;;;;;19.07;8.17;;;;;;;-145.18;100.00;60484.78;5012548;28;20038;-76
2021/03/26 09:51:34;;;;;;;16.97;7.90;;;;;;;-145.18;100.00;60484.78;5009259;28;20034;-77
2021/03/26 09:54:14;;;;;;;17.33;7.50;;;;;;;-145.18;100.00;60484.78;5012973;28;20121;-77
2021/03/26 09:57:16;;;;;;;15.53;7.10;;;;;;;-145.18;100.00;60484.78;5009166;28;20471;-76
2021/03/26 09:59:53;;;;;;;18.27;7.20;;;;;;;-145.18;100.00;60484.78;5012691;28;20034;-76
2021/03/26 10:02:39;;;;;;;19.17;8.70;;;;;;;-145.18;100.00;60484.78;5012899;28;20471;-77
2021/03/26 10:05:20;;;;;;;16.47;7.63;;;;;;;-145.18;100.00;60484.78;5012866;28;20037;-77
2021/03/26 10:08:06;;;;;;;18.43;8.20;;;;;;;-145.18;100.00;60484.78;5012090;28;20026;-77
2021/03/26 10:13:07;;;;;;;18.50;7.47;;;;;;;-145.18;100.00;60484.78;5011933;28;20049;-77
2021/03/26 10:15:41;;;;;;;16.30;7.37;;;;;;;-145.18;100.00;60484.78;5012126;28;20092;-76
2021/03/26 10:18:13;;;;;;;15.63;7.07;;;;;;;-145.18;100.00;60484.78;5012883;28;20029;-76
2021/03/26 10:20:38;;;;;;;17.60;7.43;;;;;;;-145.18;100.00;60484.78;4974427;28;20499;-76
2021/03/26 10:23:04;;;;;;;15.57;6.57;;;;;;;-145.18;100.00;60484.78;4992941;28;20033;-77
2021/03/26 10:25:44;;;;;;;16.50;6.70;;;;;;;-145.18;100.00;60484.78;4991342;28;20038;-77
2021/03/26 10:28:20;;;;;;;14.40;6.20;;;;;;;-145.18;100.00;60484.78;4992382;28;20480;-77
2021/03/26 10:31:07;;;;;;;14.40;6.20;;;;;;;-145.18;100.00;60484.78;4991974;28;20050;-76
2021/03/26 10:33:44;;;;;;;15.03;6.50;;;;;;;-145.18;100.00;60484.78;4992013;28;20030;-76
2021/03/26 10:36:22;;;;;;;12.80;5.60;;;;;;;-145.18;100.00;60484.78;4992113;28;20777;-77
2021/03/26 10:39:12;;;;;;;9.97;3.73;;;;;;;-145.18;100.00;60484.78;4991564;28;20352;-76
2021/03/26 10:41:43;;;;;;;10.97;4.83;;;;;;;-145.18;100.00;60484.78;4988872;28;20033;-76
2021/03/26 10:44:35;;;;;;;13.57;4.87;;;;;;;-145.18;100.00;60484.78;4991426;28;20068;-76
2021/03/26 10:47:08;;;;;;;13.82;5.55;;;;;;;-145.18;100.00;60484.78;4992210;28;20044;-76
2021/03/26 10:49:41;;;;;;;11.93;5.10;;;;;;;-145.18;100.00;60484.78;4991512;28;20036;-76
2021/03/26 10:52:13;;;;;;;12.93;6.10;;;;;;;-145.18;100.00;60484.78;4991871;28;20026;-76
2021/03/26 10:54:57;;;;;;;14.15;6.18;;;;;;;-145.18;100.00;60484.78;4991094;28;20022;-76
2021/03/26 10:57:35;;;;;;;13.03;5.53;;;;;;;-145.18;100.00;60484.78;4990797;28;20031;-76
2021/03/26 11:00:08;;;;;;;17.37;6.70;;;;;;;-145.18;100.00;60484.78;4991644;28;20037;-76
2021/03/26 11:02:51;;;;;;;15.03;6.77;;;;;;;-145.18;100.00;60484.78;4991643;28;20118;-77
2021/03/26 11:05:26;;;;;;;12.00;5.40;;;;;;;-145.18;100.00;60484.78;4979074;28;20491;-76
2021/03/26 11:07:57;;;;;;;11.10;5.20;;;;;;;-145.18;100.00;60484.78;4990484;28;20022;-77
2021/03/26 11:10:29;;;;;;;9.40;4.43;;;;;;;-145.18;100.00;60484.78;4991722;28;20045;-77
2021/03/26 11:13:02;;;;;;;8.43;4.40;;;;;;;-145.18;100.00;60484.78;4991139;28;20193;-76
2021/03/26 11:15:33;;;;;;;13.30;5.60;;;;;;;-145.18;100.00;60484.78;4990949;28;20054;-76
2021/03/26 11:18:28;;;;;;;9.83;4.87;;;;;;;-145.18;100.00;60484.78;4991163;28;20022;-76
2021/03/26 11:21:10;;;;;;;11.83;4.30;;;;;;;-145.18;100.00;60484.78;4982926;28;20105;-77
2021/03/26 11:23:38;;;;;;;11.75;4.47;;;;;;;-145.18;100.00;60484.78;4990743;28;20053;-77
2021/03/26 11:26:03;;;;;;;12.57;5.57;;;;;;;-145.18;100.00;60484.78;4990711;28;20030;-77
2021/03/26 11:29:12;;;;;;;13.03;6.77;;;;;;;-145.18;100.00;60484.78;4991100;28;20037;-77
2021/03/26 11:31:51;;;;;;;9.47;4.37;;;;;;;-145.18;100.00;60484.78;4990908;28;20543;-77
2021/03/26 11:34:35;;;;;;;10.97;4.40;;;;;;;-145.18;100.00;60484.78;4987502;28;20053;-77
2021/03/26 11:37:07;;;;;;;10.10;4.43;;;;;;;-145.18;100.00;60484.78;4993060;28;20029;-77
2021/03/26 11:40:06;;;;;;;9.93;4.27;;;;;;;-145.18;100.00;60484.78;4991501;28;20062;-77
2021/03/26 11:42:51;;;;;;;12.17;4.80;;;;;;;-145.18;100.00;60484.78;4983247;28;20049;-77
2021/03/26 11:45:20;;;;;;;13.90;5.37;;;;;;;-145.18;100.00;60484.78;4991552;28;20390;-77